createdAt,value
2017-09-01T00:00:25.742Z,14.80
2017-09-01T00:02:54.020Z,14.90
2017-09-01T00:05:22.338Z,14.90
2017-09-01T00:07:50.632Z,14.90
2017-09-01T00:10:18.918Z,15.00
2017-09-01T00:12:47.223Z,14.90
2017-09-01T00:15:15.501Z,14.90
2017-09-01T00:17:43.808Z,14.80
2017-09-01T00:20:12.086Z,14.80
2017-09-01T00:22:40.389Z,14.80
2017-09-01T00:25:08.666Z,14.90
2017-09-01T00:27:36.971Z,14.80
2017-09-01T00:30:05.269Z,14.80
2017-09-01T00:32:33.547Z,14.70
2017-09-01T00:35:01.874Z,14.80
2017-09-01T00:37:30.145Z,14.80
2017-09-01T00:39:58.413Z,14.80
2017-09-01T00:42:26.709Z,14.80
2017-09-01T00:44:54.977Z,14.80
2017-09-01T00:47:23.268Z,14.80
2017-09-01T00:49:51.529Z,14.80
2017-09-01T00:52:19.817Z,14.80
2017-09-01T00:54:48.077Z,14.90
2017-09-01T00:57:16.398Z,15.00
2017-09-01T00:59:43.910Z,15.00
2017-09-01T01:02:12.182Z,15.00
2017-09-01T01:04:40.494Z,15.00
2017-09-01T01:07:08.796Z,15.00
2017-09-01T01:09:37.114Z,15.00
2017-09-01T01:12:05.376Z,15.00
2017-09-01T01:14:33.644Z,15.00
2017-09-01T01:17:01.936Z,15.10
2017-09-01T01:19:30.249Z,15.00
2017-09-01T01:21:58.538Z,15.10
2017-09-01T01:24:26.835Z,15.10
2017-09-01T01:26:55.093Z,15.10
2017-09-01T01:29:23.403Z,15.10
2017-09-01T01:31:51.658Z,15.20
2017-09-01T01:34:19.917Z,15.10
2017-09-01T01:36:48.213Z,15.10
2017-09-01T01:39:16.473Z,15.10
2017-09-01T01:41:44.770Z,15.10
2017-09-01T01:44:13.051Z,15.20
2017-09-01T01:46:41.303Z,15.10
2017-09-01T01:49:09.600Z,15.10
2017-09-01T01:51:37.859Z,15.10
2017-09-01T01:54:06.116Z,15.00
2017-09-01T01:56:34.412Z,15.10
2017-09-01T01:59:02.680Z,15.10
2017-09-01T02:01:30.941Z,15.00
2017-09-01T02:03:59.247Z,15.00
2017-09-01T02:06:26.769Z,15.00
2017-09-01T02:08:55.062Z,15.00
2017-09-01T02:11:22.554Z,15.00
2017-09-01T02:13:50.891Z,14.90
2017-09-01T02:16:19.149Z,14.90
2017-09-01T02:18:47.405Z,14.90
2017-09-01T02:21:14.929Z,14.80
2017-09-01T02:23:43.184Z,14.80
2017-09-01T02:26:11.474Z,14.90
2017-09-01T02:28:39.753Z,14.80
2017-09-01T02:31:08.082Z,14.80
2017-09-01T02:33:36.345Z,14.80
2017-09-01T02:36:04.605Z,14.80
2017-09-01T02:38:32.900Z,14.70
2017-09-01T02:41:01.177Z,14.70
2017-09-01T02:43:29.482Z,14.70
2017-09-01T02:45:57.751Z,14.70
2017-09-01T02:48:26.013Z,14.70
2017-09-01T02:50:54.317Z,14.60
2017-09-01T02:53:22.586Z,14.70
2017-09-01T02:55:50.852Z,14.70
2017-09-01T02:58:19.145Z,14.60
2017-09-01T03:00:47.409Z,14.60
2017-09-01T03:03:15.709Z,14.60
2017-09-01T03:05:43.971Z,14.50
2017-09-01T03:08:12.230Z,14.50
2017-09-01T03:10:40.538Z,14.50
2017-09-01T03:13:08.832Z,14.40
2017-09-01T03:15:37.105Z,14.50
2017-09-01T03:18:04.641Z,14.40
2017-09-01T03:20:32.930Z,14.50
2017-09-01T03:23:01.224Z,14.50
2017-09-01T03:25:29.493Z,14.40
2017-09-01T03:27:57.798Z,14.40
2017-09-01T03:30:26.057Z,14.40
2017-09-01T03:32:54.340Z,14.40
2017-09-01T03:35:21.861Z,14.40
2017-09-01T03:37:50.123Z,14.40
2017-09-01T03:40:18.417Z,14.40
2017-09-01T03:42:46.677Z,14.40
2017-09-01T03:45:14.970Z,14.40
2017-09-01T03:47:42.509Z,14.40
2017-09-01T03:50:10.784Z,14.30
2017-09-01T03:52:39.076Z,14.20
2017-09-01T03:55:07.368Z,14.20
2017-09-01T03:57:35.643Z,14.30
2017-09-01T04:00:03.938Z,14.40
2017-09-01T04:02:32.217Z,14.30
2017-09-01T04:05:00.504Z,14.20
2017-09-01T04:07:28.768Z,14.20
2017-09-01T04:09:57.072Z,14.20
2017-09-01T04:12:25.344Z,14.20
2017-09-01T04:14:53.655Z,14.20
2017-09-01T04:17:21.924Z,14.20
2017-09-01T04:19:50.209Z,14.20
2017-09-01T04:22:18.515Z,14.20
2017-09-01T04:24:46.782Z,14.20
2017-09-01T04:27:15.089Z,14.20
2017-09-01T04:29:43.353Z,14.20
2017-09-01T04:32:11.617Z,14.20
2017-09-01T04:34:39.936Z,14.20
2017-09-01T04:37:08.200Z,14.40
2017-09-01T04:39:35.708Z,14.40
2017-09-01T04:42:04.020Z,14.20
2017-09-01T04:44:32.284Z,14.20
2017-09-01T04:47:00.552Z,14.20
2017-09-01T04:49:28.844Z,14.10
2017-09-01T04:51:57.111Z,14.10
2017-09-01T04:54:25.416Z,14.10
2017-09-01T04:56:53.676Z,14.00
2017-09-01T04:59:21.946Z,14.00
2017-09-01T05:01:50.240Z,14.00
2017-09-01T05:04:18.510Z,14.00
2017-09-01T05:06:46.790Z,14.10
2017-09-01T05:09:15.095Z,14.10
2017-09-01T05:11:43.388Z,14.10
2017-09-01T05:14:11.657Z,14.10
2017-09-01T05:16:39.981Z,14.10
2017-09-01T05:19:08.256Z,14.10
2017-09-01T05:21:36.554Z,14.10
2017-09-01T05:24:04.850Z,14.10
2017-09-01T05:26:33.112Z,14.20
2017-09-01T05:29:01.436Z,14.30
2017-09-01T05:31:29.696Z,14.40
2017-09-01T05:33:57.969Z,14.40
2017-09-01T05:36:26.268Z,14.40
2017-09-01T05:38:54.532Z,14.40
2017-09-01T05:41:22.853Z,14.50
2017-09-01T05:43:51.151Z,14.40
2017-09-01T05:46:19.455Z,14.40
2017-09-01T05:48:47.727Z,14.60
2017-09-01T05:51:16.049Z,14.60
2017-09-01T05:53:44.323Z,14.70
2017-09-01T05:56:12.592Z,14.70
2017-09-01T05:58:40.891Z,14.80
2017-09-01T06:01:09.155Z,14.90
2017-09-01T06:03:37.471Z,14.80
2017-09-01T06:06:05.733Z,14.80
2017-09-01T06:08:34.019Z,14.90
2017-09-01T06:11:02.330Z,15.00
2017-09-01T06:13:30.601Z,15.10
2017-09-01T06:15:58.900Z,15.00
2017-09-01T06:18:27.183Z,15.00
2017-09-01T06:20:55.485Z,15.00
2017-09-01T06:23:23.796Z,15.00
2017-09-01T06:25:52.076Z,15.00
2017-09-01T06:28:20.364Z,15.10
2017-09-01T06:30:48.682Z,15.10
2017-09-01T06:33:16.959Z,15.10
2017-09-01T06:35:45.229Z,15.10
2017-09-01T06:38:13.523Z,15.20
2017-09-01T06:40:41.779Z,15.30
2017-09-01T06:43:10.072Z,15.40
2017-09-01T06:45:38.339Z,15.50
2017-09-01T06:48:05.873Z,15.50
2017-09-01T06:50:34.191Z,15.60
2017-09-01T06:53:02.464Z,15.50
2017-09-01T06:55:30.739Z,15.50
2017-09-01T06:57:59.041Z,15.50
2017-09-01T07:00:27.338Z,15.50
2017-09-01T07:02:55.613Z,15.50
2017-09-01T07:05:24.057Z,15.50
2017-09-01T07:07:52.334Z,15.50
2017-09-01T07:10:20.621Z,15.60
2017-09-01T07:12:48.913Z,15.70
2017-09-01T07:15:17.208Z,15.70
2017-09-01T07:17:45.477Z,15.70
2017-09-01T07:20:13.795Z,15.70
2017-09-01T07:22:42.066Z,15.80
2017-09-01T07:25:10.341Z,15.80
2017-09-01T07:27:38.658Z,15.80
2017-09-01T07:30:06.965Z,15.80
2017-09-01T07:32:35.238Z,15.80
2017-09-01T07:35:03.500Z,15.90
2017-09-01T07:37:31.806Z,15.90
2017-09-01T07:40:00.082Z,15.90
2017-09-01T07:42:28.505Z,15.90
2017-09-01T07:44:56.773Z,15.90
2017-09-01T07:47:25.030Z,15.90
2017-09-01T07:49:53.349Z,16.00
2017-09-01T07:52:21.613Z,16.00
2017-09-01T07:54:49.885Z,16.00
2017-09-01T07:57:17.411Z,16.00
2017-09-01T07:59:45.671Z,16.10
2017-09-01T08:02:13.984Z,16.10
2017-09-01T08:04:42.248Z,16.20
2017-09-01T08:07:10.517Z,16.20
2017-09-01T08:09:38.804Z,16.10
2017-09-01T08:12:07.064Z,16.00
2017-09-01T08:14:35.513Z,16.00
2017-09-01T08:17:03.794Z,16.00
2017-09-01T08:19:32.063Z,16.10
2017-09-01T08:22:00.367Z,16.20
2017-09-01T08:24:28.649Z,16.10
2017-09-01T08:26:56.916Z,16.10
2017-09-01T08:29:25.225Z,16.00
2017-09-01T08:31:53.484Z,16.10
2017-09-01T08:34:21.753Z,16.00
2017-09-01T08:36:50.054Z,15.90
2017-09-01T08:39:18.325Z,16.10
2017-09-01T08:41:46.641Z,16.00
2017-09-01T08:44:14.912Z,16.10
2017-09-01T08:46:43.179Z,16.40
2017-09-01T08:49:10.863Z,16.30
2017-09-01T08:51:39.140Z,16.70
2017-09-01T08:54:07.401Z,16.80
2017-09-01T08:56:35.708Z,16.80
2017-09-01T08:59:03.974Z,16.90
2017-09-01T09:01:32.249Z,16.90
2017-09-01T09:04:00.553Z,17.00
2017-09-01T09:06:28.824Z,17.10
2017-09-01T09:08:57.132Z,17.10
2017-09-01T09:11:25.403Z,17.20
2017-09-01T09:13:53.803Z,17.40
2017-09-01T09:16:22.071Z,17.40
2017-09-01T09:18:50.347Z,17.50
2017-09-01T09:21:18.645Z,17.50
2017-09-01T09:23:47.044Z,17.80
2017-09-01T09:26:15.349Z,17.90
2017-09-01T09:28:43.616Z,18.00
2017-09-01T09:31:11.897Z,17.90
2017-09-01T09:33:40.324Z,18.00
2017-09-01T09:36:08.615Z,18.10
2017-09-01T09:38:36.896Z,18.40
2017-09-01T09:41:05.288Z,18.70
2017-09-01T09:43:33.551Z,18.50
2017-09-01T09:46:01.829Z,18.70
2017-09-01T09:48:30.124Z,18.70
2017-09-01T09:50:58.396Z,18.70
2017-09-01T09:53:26.680Z,18.60
2017-09-01T09:55:54.948Z,18.70
2017-09-01T09:58:23.261Z,18.60
2017-09-01T10:00:51.519Z,18.60
2017-09-01T10:03:19.985Z,18.60
2017-09-01T10:05:48.258Z,18.70
2017-09-01T10:08:16.524Z,18.60
2017-09-01T10:10:44.825Z,18.50
2017-09-01T10:13:13.086Z,18.40
2017-09-01T10:15:41.527Z,18.30
2017-09-01T10:18:09.781Z,18.40
2017-09-01T10:20:38.049Z,18.50
2017-09-01T10:23:06.503Z,18.80
2017-09-01T10:25:34.770Z,18.90
2017-09-01T10:28:03.043Z,18.90
2017-09-01T10:30:31.358Z,18.90
2017-09-01T10:32:59.628Z,18.90
2017-09-01T10:35:27.887Z,19.00
2017-09-01T10:37:56.184Z,19.20
2017-09-01T10:40:24.451Z,19.40
2017-09-01T10:42:52.715Z,19.60
2017-09-01T10:45:21.117Z,19.90
2017-09-01T10:48:01.357Z,19.80
2017-09-01T10:50:50.317Z,19.70
2017-09-01T10:53:30.336Z,19.70
2017-09-01T10:56:10.434Z,19.60
2017-09-01T10:58:38.693Z,19.50
2017-09-01T11:01:06.948Z,19.60
2017-09-01T11:03:35.331Z,19.90
2017-09-01T11:06:03.602Z,20.10
2017-09-01T11:08:31.895Z,20.20
2017-09-01T11:11:00.161Z,20.50
2017-09-01T11:13:28.463Z,20.50
2017-09-01T11:15:56.729Z,20.60
2017-09-01T11:18:24.985Z,20.60
2017-09-01T11:20:59.078Z,20.80
2017-09-01T11:23:33.086Z,20.90
2017-09-01T11:26:01.510Z,20.80
2017-09-01T11:28:29.765Z,21.00
2017-09-01T11:30:58.025Z,21.20
2017-09-01T11:33:26.316Z,21.00
2017-09-01T11:35:54.584Z,21.10
2017-09-01T11:38:22.892Z,21.10
2017-09-01T11:40:51.159Z,21.20
2017-09-01T11:43:19.455Z,21.00
2017-09-01T11:45:47.718Z,20.90
2017-09-01T11:48:16.030Z,20.90
2017-09-01T11:50:44.305Z,20.80
2017-09-01T11:53:12.576Z,21.10
2017-09-01T11:55:41.071Z,21.10
2017-09-01T11:58:09.341Z,21.10
2017-09-01T12:00:37.616Z,20.90
2017-09-01T12:03:05.909Z,21.10
2017-09-01T12:05:34.182Z,21.00
2017-09-01T12:08:03.415Z,21.00
2017-09-01T12:10:31.680Z,21.00
2017-09-01T12:12:59.986Z,21.50
2017-09-01T12:15:28.246Z,21.40
2017-09-01T12:17:56.515Z,21.80
2017-09-01T12:20:24.809Z,21.90
2017-09-01T12:22:53.200Z,22.00
2017-09-01T12:25:21.461Z,21.70
2017-09-01T12:27:49.758Z,21.60
2017-09-01T12:30:18.049Z,21.70
2017-09-01T12:32:46.320Z,21.80
2017-09-01T12:35:14.709Z,21.80
2017-09-01T12:37:43.005Z,22.00
2017-09-01T12:40:10.543Z,22.00
2017-09-01T12:42:38.807Z,22.00
2017-09-01T12:45:07.076Z,22.20
2017-09-01T12:47:35.560Z,22.20
2017-09-01T12:50:03.828Z,22.30
2017-09-01T12:52:32.092Z,22.40
2017-09-01T12:55:00.392Z,22.20
2017-09-01T12:57:28.868Z,22.00
2017-09-01T12:59:57.123Z,21.70
2017-09-01T13:02:25.421Z,21.70
2017-09-01T13:04:53.677Z,21.50
2017-09-01T13:07:21.968Z,21.30
2017-09-01T13:09:50.255Z,21.20
2017-09-01T13:12:18.552Z,21.20
2017-09-01T13:14:46.821Z,21.40
2017-09-01T13:17:15.117Z,21.50
2017-09-01T13:19:43.384Z,21.60
2017-09-01T13:22:11.675Z,21.70
2017-09-01T13:24:39.983Z,21.70
2017-09-01T13:27:08.252Z,21.80
2017-09-01T13:29:36.519Z,21.90
2017-09-01T13:32:04.824Z,21.90
2017-09-01T13:34:33.085Z,21.80
2017-09-01T13:37:01.341Z,21.70
2017-09-01T13:39:29.653Z,21.40
2017-09-01T13:41:57.915Z,21.10
2017-09-01T13:44:26.176Z,21.00
2017-09-01T13:46:54.468Z,21.20
2017-09-01T13:49:22.717Z,21.50
2017-09-01T13:51:51.015Z,21.70
2017-09-01T13:54:19.274Z,21.80
2017-09-01T13:56:47.563Z,22.00
2017-09-01T13:59:15.868Z,22.10
2017-09-01T14:01:44.132Z,22.20
2017-09-01T14:04:12.395Z,22.20
2017-09-01T14:06:40.057Z,22.20
2017-09-01T14:09:08.324Z,22.30
2017-09-01T14:11:36.590Z,22.10
2017-09-01T14:14:04.909Z,22.00
2017-09-01T14:16:33.182Z,21.90
2017-09-01T14:19:01.449Z,21.70
2017-09-01T14:21:29.761Z,21.60
2017-09-01T14:23:58.020Z,21.50
2017-09-01T14:26:26.285Z,21.40
2017-09-01T14:28:53.907Z,21.40
2017-09-01T14:31:22.162Z,21.10
2017-09-01T14:33:50.456Z,21.10
2017-09-01T14:36:18.721Z,21.10
2017-09-01T14:38:46.981Z,21.10
2017-09-01T14:41:15.284Z,21.20
2017-09-01T14:43:43.544Z,21.20
2017-09-01T14:46:11.803Z,21.20
2017-09-01T14:48:40.093Z,21.40
2017-09-01T14:51:08.358Z,21.30
2017-09-01T14:53:36.827Z,21.10
2017-09-01T14:56:05.088Z,21.10
2017-09-01T14:58:33.356Z,21.20
2017-09-01T15:01:01.653Z,21.30
2017-09-01T15:03:29.930Z,21.30
2017-09-01T15:05:58.231Z,21.30
2017-09-01T15:08:26.528Z,21.30
2017-09-01T15:10:54.790Z,21.20
2017-09-01T15:13:23.087Z,21.10
2017-09-01T15:15:50.590Z,21.10
2017-09-01T15:18:18.848Z,20.80
2017-09-01T15:20:47.132Z,20.60
2017-09-01T15:23:15.400Z,20.50
2017-09-01T15:25:43.704Z,20.40
2017-09-01T15:28:11.963Z,20.40
2017-09-01T15:30:40.224Z,20.30
2017-09-01T15:33:08.513Z,20.20
2017-09-01T15:35:36.781Z,20.00
2017-09-01T15:38:05.055Z,20.00
2017-09-01T15:40:33.317Z,19.90
2017-09-01T15:43:01.624Z,19.90
2017-09-01T15:45:29.905Z,19.90
2017-09-01T15:47:58.197Z,19.80
2017-09-01T15:50:26.459Z,19.80
2017-09-01T15:52:54.748Z,19.80
2017-09-01T15:55:23.072Z,19.80
2017-09-01T15:57:51.340Z,19.80
2017-09-01T16:00:18.833Z,19.80
2017-09-01T16:02:47.120Z,19.90
2017-09-01T16:05:15.382Z,19.90
2017-09-01T16:07:43.693Z,20.00
2017-09-01T16:10:11.999Z,20.00
2017-09-01T16:12:40.257Z,20.00
2017-09-01T16:15:08.520Z,20.20
2017-09-01T16:17:36.829Z,20.20
2017-09-01T16:20:05.095Z,20.10
2017-09-01T16:22:33.442Z,20.00
2017-09-01T16:25:01.747Z,20.00
2017-09-01T16:27:30.005Z,20.00
2017-09-01T16:29:58.261Z,20.10
2017-09-01T16:32:26.580Z,20.10
2017-09-01T16:34:54.846Z,20.20
2017-09-01T16:37:23.112Z,20.20
2017-09-01T16:39:51.392Z,20.20
2017-09-01T16:42:19.651Z,20.20
2017-09-01T16:44:47.940Z,20.00
2017-09-01T16:47:16.222Z,20.00
2017-09-01T16:49:44.483Z,20.10
2017-09-01T16:52:12.783Z,19.90
2017-09-01T16:54:41.040Z,19.90
2017-09-01T16:57:09.304Z,19.80
2017-09-01T16:59:37.591Z,19.80
2017-09-01T17:02:05.855Z,19.80
2017-09-01T17:04:34.155Z,19.90
2017-09-01T17:07:02.412Z,19.90
2017-09-01T17:09:30.712Z,19.80
2017-09-01T17:11:58.973Z,19.80
2017-09-01T17:14:27.243Z,19.70
2017-09-01T17:16:55.540Z,19.70
2017-09-01T17:19:23.801Z,19.70
2017-09-01T17:21:52.061Z,19.60
2017-09-01T17:24:20.355Z,19.50
2017-09-01T17:26:48.656Z,19.50
2017-09-01T17:29:16.909Z,19.40
2017-09-01T17:31:45.164Z,19.40
2017-09-01T17:34:13.455Z,19.30
2017-09-01T17:36:41.723Z,19.40
2017-09-01T17:39:10.013Z,19.20
2017-09-01T17:41:38.269Z,19.20
2017-09-01T17:44:06.581Z,19.10
2017-09-01T17:46:34.846Z,19.10
2017-09-01T17:49:03.108Z,19.10
2017-09-01T17:51:31.411Z,19.10
2017-09-01T17:53:59.679Z,19.00
2017-09-01T17:56:27.939Z,18.90
2017-09-01T17:58:56.228Z,18.80
2017-09-01T18:01:24.523Z,18.80
2017-09-01T18:03:52.786Z,18.80
2017-09-01T18:06:21.081Z,18.80
2017-09-01T18:08:49.357Z,18.60
2017-09-01T18:11:17.702Z,18.50
2017-09-01T18:13:45.992Z,18.50
2017-09-01T18:16:14.268Z,18.40
2017-09-01T18:18:42.555Z,18.30
2017-09-01T18:21:10.847Z,18.30
2017-09-01T18:23:39.159Z,18.30
2017-09-01T18:26:07.448Z,18.20
2017-09-01T18:28:35.712Z,18.20
2017-09-01T18:31:04.007Z,18.20
2017-09-01T18:33:32.314Z,18.20
2017-09-01T18:36:00.592Z,18.30
2017-09-01T18:38:28.856Z,18.20
2017-09-01T18:40:57.160Z,18.20
2017-09-01T18:43:25.420Z,18.20
2017-09-01T18:45:53.692Z,18.20
2017-09-01T18:48:21.978Z,18.20
2017-09-01T18:50:50.228Z,18.20
2017-09-01T18:53:18.524Z,18.20
2017-09-01T18:55:46.792Z,18.20
2017-09-01T18:58:15.060Z,18.10
2017-09-01T19:00:43.378Z,18.20
2017-09-01T19:03:11.644Z,18.10
2017-09-01T19:05:39.901Z,18.10
2017-09-01T19:08:08.196Z,18.00
2017-09-01T19:10:36.457Z,18.10
2017-09-01T19:13:04.720Z,18.10
2017-09-01T19:15:33.008Z,18.00
2017-09-01T19:18:01.277Z,18.00
2017-09-01T19:20:29.569Z,18.00
2017-09-01T19:22:57.868Z,18.00
2017-09-01T19:25:26.132Z,17.90
2017-09-01T19:27:54.428Z,17.90
2017-09-01T19:30:22.684Z,18.00
2017-09-01T19:32:50.944Z,17.90
2017-09-01T19:35:19.240Z,17.90
2017-09-01T19:37:47.518Z,17.90
2017-09-01T19:40:15.816Z,17.80
2017-09-01T19:42:44.093Z,17.90
2017-09-01T19:45:12.398Z,17.90
2017-09-01T19:47:40.665Z,17.80
2017-09-01T19:50:08.948Z,17.80
2017-09-01T19:52:37.247Z,17.80
2017-09-01T19:55:05.518Z,17.90
2017-09-01T19:57:33.823Z,17.80
2017-09-01T20:00:02.088Z,17.60
2017-09-01T20:02:30.349Z,17.50
2017-09-01T20:04:58.656Z,17.60
2017-09-01T20:07:26.922Z,17.50
2017-09-01T20:09:55.240Z,17.40
2017-09-01T20:12:23.515Z,17.40
2017-09-01T20:14:51.790Z,17.30
2017-09-01T20:17:20.089Z,17.30
2017-09-01T20:19:48.345Z,17.30
2017-09-01T20:22:16.660Z,17.30
2017-09-01T20:24:44.913Z,17.40
2017-09-01T20:27:13.187Z,17.50
2017-09-01T20:29:41.489Z,17.40
2017-09-01T20:32:09.757Z,17.30
2017-09-01T20:34:38.072Z,17.20
2017-09-01T20:37:06.330Z,17.10
2017-09-01T20:39:34.605Z,17.10
2017-09-01T20:42:02.897Z,17.10
2017-09-01T20:44:31.202Z,17.30
2017-09-01T20:46:59.508Z,17.30
2017-09-01T20:49:27.778Z,17.20
2017-09-01T20:51:56.088Z,17.10
2017-09-01T20:54:24.351Z,17.10
2017-09-01T20:56:52.621Z,17.00
2017-09-01T20:59:20.926Z,16.90
2017-09-01T21:01:49.206Z,16.90
2017-09-01T21:04:17.509Z,16.80
2017-09-01T21:06:45.781Z,16.80
2017-09-01T21:09:14.085Z,16.90
2017-09-01T21:11:42.355Z,16.90
2017-09-01T21:14:10.652Z,16.80
2017-09-01T21:16:38.941Z,16.80
2017-09-01T21:19:07.207Z,16.80
2017-09-01T21:21:35.507Z,16.70
2017-09-01T21:24:03.781Z,16.70
2017-09-01T21:26:32.085Z,16.70
2017-09-01T21:29:00.369Z,16.80
2017-09-01T21:31:28.624Z,16.80
2017-09-01T21:33:56.935Z,16.70
2017-09-01T21:36:25.197Z,16.70
2017-09-01T21:38:53.464Z,16.70
2017-09-01T21:41:21.780Z,16.70
2017-09-01T21:43:50.047Z,16.70
2017-09-01T21:46:18.334Z,16.70
2017-09-01T21:48:46.593Z,16.60
2017-09-01T21:51:14.913Z,16.60
2017-09-01T21:53:43.185Z,16.60
2017-09-01T21:56:11.454Z,16.60
2017-09-01T21:58:39.748Z,16.60
2017-09-01T22:01:19.904Z,16.70
2017-09-01T22:03:48.199Z,16.70
2017-09-01T22:06:16.464Z,16.70
2017-09-01T22:08:44.759Z,16.60
2017-09-01T22:11:13.025Z,16.70
2017-09-01T22:13:41.315Z,16.70
2017-09-01T22:16:09.572Z,16.60
2017-09-01T22:18:37.843Z,16.50
2017-09-01T22:21:06.130Z,16.50
2017-09-01T22:23:34.420Z,16.50
2017-09-01T22:26:02.687Z,16.50
2017-09-01T22:28:30.984Z,16.60
2017-09-01T22:30:59.242Z,16.50
2017-09-01T22:33:27.503Z,16.50
2017-09-01T22:35:55.795Z,16.50
2017-09-01T22:38:24.112Z,16.50
2017-09-01T22:40:51.604Z,16.50
2017-09-01T22:43:19.871Z,16.60
2017-09-01T22:45:48.207Z,16.60
2017-09-01T22:48:16.467Z,16.60
2017-09-01T22:50:44.721Z,16.60
2017-09-01T22:53:13.008Z,16.70
2017-09-01T22:55:41.283Z,16.70
2017-09-01T22:58:09.584Z,16.60
2017-09-01T23:00:37.838Z,16.60
2017-09-01T23:03:06.128Z,16.60
2017-09-01T23:05:34.393Z,16.70
2017-09-01T23:08:02.701Z,16.70
2017-09-01T23:10:30.963Z,16.70
2017-09-01T23:12:59.232Z,16.70
2017-09-01T23:15:27.521Z,16.60
2017-09-01T23:17:55.783Z,16.70
2017-09-01T23:20:24.070Z,16.80
2017-09-01T23:22:52.356Z,16.70
2017-09-01T23:25:20.619Z,16.70
2017-09-01T23:27:48.923Z,16.60
2017-09-01T23:30:17.193Z,16.60
2017-09-01T23:32:45.497Z,16.60
2017-09-01T23:35:13.765Z,16.50
2017-09-01T23:37:42.161Z,16.50
2017-09-01T23:40:10.464Z,16.50
2017-09-01T23:42:38.723Z,16.50
2017-09-01T23:45:06.986Z,16.50
2017-09-01T23:47:35.271Z,16.60
2017-09-01T23:50:03.548Z,16.50
2017-09-01T23:52:31.848Z,16.60
2017-09-01T23:55:00.108Z,16.70
2017-09-01T23:57:28.399Z,16.80
2017-09-01T23:59:56.659Z,16.70
